GB-0573 weather

CLOSED RAF Skaebrae Air Base
Orkney, Scotland, United Kingdom

Public forecast

Using degrees Celsius for public forecast. Weather courtesy of forecast.io.

METAR (pilot weather report)

Closest report is Kirkwall Airport, 12.9 nm (24.0 km) ESE. Retrieved 2019/05/25 21:20 UTC (0 seconds ago):

EGPA 252120Z AUTO 01009KT 9999 OVC030/// 08/02 Q1012

TAF (pilot weather forecast)

Closest forecast is RAF Lossiemouth, 81.6 nm (151.1 km) S. Retrieved 2019/05/25 21:08 UTC (0 seconds ago):

TAF EGQS 251946Z 2521/2615 05005KT 9999 -RA BKN020 TEMPO 2521/2615 7000 RA BKN010 PROB40 TEMPO 2521/2615 4000 RADZ PROB30 TEMPO 2521/2603 3000 RADZ SCT005 BKN008 PROB40 TEMPO 2603/2615 3000 +RA PROB30 TEMPO 2606/2615 11015G25KT FEW025 BKN030